Time;durP1;ratioP1;P1;durP2;ratioP2;P2;SDS_P1;SDS_P2;PMS_P1;PMS_P2;Temp;Humidity;BMP_temperature;BMP_pressure;BME280_temperature;BME280_humidity;BME280_pressure;Samples;Min_cycle;Max_cycle;Signal;HPM_P1;HPM_P2
2021/09/15 02:01:35;;;;;;;32.70;29.40;;;;;;;12.94;91.62;99123.23;111291;1202;61869;-89
2021/09/15 02:04:03;;;;;;;31.90;28.90;;;;;;;12.90;91.71;99126.55;111348;1202;61973;-88
2021/09/15 02:06:29;;;;;;;31.60;28.30;;;;;;;12.88;91.72;99127.09;111243;1203;61839;-89
2021/09/15 02:08:56;;;;;;;33.30;29.90;;;;;;;12.85;91.72;99123.95;111321;1202;61859;-90
2021/09/15 02:11:24;;;;;;;33.20;29.70;;;;;;;12.84;91.96;99123.64;111292;1202;61862;-89
2021/09/15 02:13:51;;;;;;;32.60;29.00;;;;;;;12.84;92.21;99120.61;111262;1195;61854;-88
2021/09/15 02:16:18;;;;;;;30.80;27.60;;;;;;;12.87;92.37;99122.70;111327;1199;61923;-89
2021/09/15 02:18:44;;;;;;;31.40;28.30;;;;;;;12.90;92.30;99125.89;111356;1202;66491;-88
2021/09/15 02:21:11;;;;;;;34.20;30.80;;;;;;;12.90;92.29;99124.80;111312;1203;61965;-89
2021/09/15 02:23:38;;;;;;;33.80;30.20;;;;;;;12.89;92.25;99119.52;111324;1201;62626;-90
2021/09/15 02:26:05;;;;;;;34.20;30.60;;;;;;;12.87;92.50;99118.60;111232;1195;61939;-90
2021/09/15 02:28:31;;;;;;;37.10;31.20;;;;;;;12.87;92.65;99118.20;111232;1195;61766;-90
2021/09/15 02:30:58;;;;;;;35.80;32.10;;;;;;;12.87;92.78;99117.32;111291;1195;66815;-89
2021/09/15 02:33:24;;;;;;;35.30;31.70;;;;;;;12.87;92.98;99120.58;111343;1202;61847;-88
2021/09/15 02:35:51;;;;;;;39.60;35.30;;;;;;;12.88;93.11;99123.31;111593;1202;64055;-88
2021/09/15 02:38:18;;;;;;;37.10;32.90;;;;;;;12.88;93.42;99118.86;111777;1195;61790;-90
2021/09/15 02:40:45;;;;;;;37.10;33.10;;;;;;;12.89;93.36;99119.34;112203;1196;61939;-88
2021/09/15 02:43:11;;;;;;;36.00;30.90;;;;;;;12.86;92.98;99113.14;113339;1195;66841;-88
2021/09/15 02:45:38;;;;;;;38.30;32.60;;;;;;;12.84;92.95;99115.04;112379;1195;61869;-89
2021/09/15 02:48:06;;;;;;;33.70;30.20;;;;;;;12.83;92.75;99114.96;112868;1202;64100;-88
2021/09/15 02:50:33;;;;;;;32.50;29.00;;;;;;;12.81;92.72;99110.33;113482;1197;61783;-88
2021/09/15 02:53:00;;;;;;;28.10;25.40;;;;;;;12.75;92.42;99115.94;111985;1202;61950;-88
2021/09/15 02:55:27;;;;;;;30.60;27.50;;;;;;;12.71;92.30;99120.13;111251;1202;65448;-89
2021/09/15 02:57:53;;;;;;;27.30;24.60;;;;;;;12.65;92.29;99121.63;111299;1202;61886;-89
2021/09/15 03:00:20;;;;;;;30.50;27.30;;;;;;;12.58;92.22;99122.29;111264;1200;64032;-89
2021/09/15 03:02:47;;;;;;;28.70;25.90;;;;;;;12.53;92.20;99123.22;111263;1196;61835;-89
2021/09/15 03:05:14;;;;;;;32.80;29.40;;;;;;;12.47;92.23;99116.89;111297;1202;61971;-90
2021/09/15 03:07:40;;;;;;;29.40;26.40;;;;;;;12.43;92.40;99114.69;111319;1202;66850;-89
2021/09/15 03:10:08;;;;;;;28.40;25.50;;;;;;;12.39;92.34;99111.80;111289;1202;61894;-88
2021/09/15 03:12:35;;;;;;;28.00;25.20;;;;;;;12.36;92.24;99111.98;111250;1195;62941;-89
2021/09/15 03:15:02;;;;;;;28.60;25.40;;;;;;;12.32;92.10;99110.89;111290;1195;61902;-89
2021/09/15 03:17:29;;;;;;;32.80;29.30;;;;;;;12.29;92.39;99106.28;111339;1195;61878;-89
2021/09/15 03:19:55;;;;;;;30.10;27.10;;;;;;;12.28;92.55;99113.25;111337;1202;66775;-89
2021/09/15 03:22:22;;;;;;;26.10;23.30;;;;;;;12.27;92.30;99114.38;111307;1202;61878;-89
2021/09/15 03:24:49;;;;;;;27.20;24.40;;;;;;;12.24;92.19;99111.64;111325;1202;62603;-89
2021/09/15 03:27:15;;;;;;;31.50;28.30;;;;;;;12.21;92.35;99109.65;111303;1203;61869;-89
2021/09/15 03:29:44;;;;;;;29.20;26.10;;;;;;;12.19;92.42;99108.19;111224;1203;61937;-88
2021/09/15 03:32:10;;;;;;;32.60;29.10;;;;;;;12.19;92.84;99111.98;111285;1202;65856;-89
2021/09/15 03:34:37;;;;;;;30.10;27.10;;;;;;;12.18;92.91;99110.94;111320;1202;61876;-87
2021/09/15 03:37:04;;;;;;;32.60;28.90;;;;;;;12.19;93.03;99112.65;111355;1202;62742;-88
2021/09/15 03:39:31;;;;;;;31.70;28.40;;;;;;;12.19;92.99;99113.89;111322;1195;61896;-89
2021/09/15 03:41:57;;;;;;;33.60;30.20;;;;;;;12.19;93.24;99112.65;111270;1195;61854;-89
2021/09/15 03:44:24;;;;;;;30.50;26.70;;;;;;;12.22;93.34;99113.93;111315;1203;66842;-88
2021/09/15 03:46:51;;;;;;;28.50;25.50;;;;;;;12.24;93.27;99113.23;111304;1202;61883;-88
2021/09/15 03:49:17;;;;;;;31.30;28.00;;;;;;;12.22;93.22;99114.04;111409;1202;62734;-88
2021/09/15 03:51:44;;;;;;;30.80;27.60;;;;;;;12.21;93.23;99118.98;111305;1202;61883;-88
2021/09/15 03:54:11;;;;;;;29.80;26.70;;;;;;;12.18;93.08;99122.05;111257;1202;61786;-88
2021/09/15 03:56:37;;;;;;;25.20;22.60;;;;;;;12.15;93.00;99123.30;111333;1202;66796;-88
2021/09/15 03:59:04;;;;;;;29.60;26.60;;;;;;;12.09;93.00;99120.52;111335;1202;61916;-89
2021/09/15 04:01:30;;;;;;;29.80;26.60;;;;;;;12.04;93.17;99118.16;111288;1202;64111;-88
2021/09/15 04:03:57;;;;;;;27.40;24.40;;;;;;;11.99;92.95;99123.52;111296;1196;61892;-88
2021/09/15 04:06:24;;;;;;;23.60;21.30;;;;;;;11.95;92.85;99122.72;111357;1198;61896;-90
2021/09/15 04:08:50;;;;;;;25.70;23.10;;;;;;;11.89;92.61;99122.09;111273;1196;66788;-88
2021/09/15 04:11:17;;;;;;;31.20;28.00;;;;;;;11.84;92.88;99117.80;111297;1203;61859;-88
2021/09/15 04:13:45;;;;;;;30.90;27.80;;;;;;;11.81;93.13;99115.16;111547;1202;63667;-88
2021/09/15 04:16:12;;;;;;;32.20;29.10;;;;;;;11.78;93.23;99116.04;111315;1195;61866;-88
2021/09/15 04:18:38;;;;;;;38.10;34.20;;;;;;;11.78;93.67;99112.17;111276;1195;61802;-90
2021/09/15 04:21:05;;;;;;;36.80;33.10;;;;;;;11.79;93.88;99108.33;111323;1202;66793;-89
2021/09/15 04:23:41;;;;;;;41.70;37.20;;;;;;;11.81;94.56;99097.90;111297;1202;61858;-88
2021/09/15 04:31:39;;;;;;;41.90;37.10;;;;;;;11.92;95.00;99091.13;111316;1202;61896;-88
2021/09/15 04:34:05;;;;;;;42.00;37.50;;;;;;;11.96;95.24;99091.17;111291;1202;66884;-88
2021/09/15 04:36:32;;;;;;;46.30;39.00;;;;;;;12.02;95.49;99094.11;111290;1202;61884;-88
2021/09/15 04:38:58;;;;;;;40.60;36.20;;;;;;;12.08;95.63;99093.91;111307;1202;62600;-88
2021/09/15 04:41:25;;;;;;;41.50;37.20;;;;;;;12.14;95.51;99096.48;111300;1197;61905;-88
2021/09/15 04:43:52;;;;;;;40.50;36.30;;;;;;;12.29;95.39;99093.77;111311;1195;61809;-88
2021/09/15 04:46:18;;;;;;;40.40;34.90;;;;;;;12.49;95.34;99090.17;111403;1202;65677;-88
2021/09/15 04:48:46;;;;;;;39.30;35.10;;;;;;;12.70;94.98;99092.39;111335;1202;61921;-90
2021/09/15 04:51:13;;;;;;;38.20;34.30;;;;;;;12.90;94.55;99089.66;111309;1195;63738;-88
2021/09/15 04:53:40;;;;;;;38.90;34.90;;;;;;;13.12;94.16;99089.25;111302;1195;61885;-88
2021/09/15 04:56:07;;;;;;;37.80;34.10;;;;;;;13.33;93.74;99093.40;111316;1195;61828;-88
2021/09/15 04:58:33;;;;;;;37.20;33.40;;;;;;;13.53;93.45;99093.80;111287;1202;65534;-89
2021/09/15 05:01:00;;;;;;;37.80;34.10;;;;;;;13.72;92.96;99093.77;111303;1203;62016;-89
2021/09/15 05:03:27;;;;;;;37.30;33.70;;;;;;;13.90;92.57;99088.95;111211;1196;63994;-89
2021/09/15 05:05:53;;;;;;;35.80;32.40;;;;;;;14.07;92.11;99087.05;111334;1195;61961;-89
2021/09/15 05:08:20;;;;;;;37.30;33.40;;;;;;;14.23;91.62;99084.73;111293;1202;61729;-88
2021/09/15 05:10:47;;;;;;;38.70;34.70;;;;;;;14.40;91.31;99089.25;111351;1195;66804;-88
2021/09/15 05:13:14;;;;;;;38.00;34.50;;;;;;;14.57;90.92;99091.27;111303;1195;61857;-89
2021/09/15 05:15:41;;;;;;;36.90;33.30;;;;;;;14.73;90.64;99093.54;111407;1203;62609;-88
2021/09/15 05:18:09;;;;;;;35.90;32.50;;;;;;;14.89;90.14;99089.36;111304;1202;61950;-88
2021/09/15 05:20:35;;;;;;;35.40;31.90;;;;;;;15.09;89.76;99090.55;111431;1195;61824;-88
2021/09/15 05:23:02;;;;;;;31.40;28.30;;;;;;;15.31;89.30;99090.98;111325;1195;65454;-92
2021/09/15 05:25:29;;;;;;;32.50;29.20;;;;;;;15.50;88.77;99090.60;111353;1202;61800;-89
2021/09/15 05:27:56;;;;;;;32.60;29.40;;;;;;;15.71;88.49;99094.40;111384;1202;63954;-89
2021/09/15 05:30:22;;;;;;;32.80;29.70;;;;;;;15.89;87.99;99086.95;111391;1203;61904;-89
2021/09/15 05:32:49;;;;;;;32.70;29.60;;;;;;;16.09;87.58;99087.70;111350;1196;61965;-89
2021/09/15 05:35:16;;;;;;;32.20;29.00;;;;;;;16.25;87.02;99081.60;111298;1195;66793;-89
2021/09/15 05:37:43;;;;;;;31.20;28.30;;;;;;;16.41;86.71;99082.69;111385;1196;61879;-88
2021/09/15 05:40:09;;;;;;;33.40;30.20;;;;;;;16.60;86.35;99081.86;111362;1202;63956;-89
2021/09/15 05:42:36;;;;;;;34.40;31.10;;;;;;;16.73;85.66;99082.54;111417;1202;61959;-87
2021/09/15 05:45:05;;;;;;;34.30;31.00;;;;;;;16.77;85.33;99082.18;111373;1196;61780;-89
2021/09/15 05:47:32;;;;;;;34.30;31.00;;;;;;;16.81;84.99;99083.25;111561;1200;65711;-87
2021/09/15 05:49:59;;;;;;;33.10;29.70;;;;;;;16.83;84.78;99084.30;111565;1203;61795;-90
2021/09/15 05:52:26;;;;;;;34.70;31.20;;;;;;;16.81;84.67;99084.89;112937;1196;62463;-87
2021/09/15 05:54:53;;;;;;;36.90;32.20;;;;;;;16.59;84.94;99084.48;113295;1195;59780;-89
2021/09/15 05:57:20;;;;;;;33.40;30.20;;;;;;;16.37;85.12;99084.49;111785;1195;61882;-90
2021/09/15 05:59:47;;;;;;;32.70;29.40;;;;;;;16.29;85.16;99083.12;113518;1202;75532;-87
2021/09/15 06:02:13;;;;;;;34.70;31.30;;;;;;;16.35;85.01;99080.53;113272;1195;61860;-88
2021/09/15 06:04:40;;;;;;;35.20;31.70;;;;;;;16.45;84.77;99076.42;111621;1202;62602;-91
2021/09/15 06:07:07;;;;;;;33.90;30.30;;;;;;;16.58;84.86;99076.34;111277;1196;61883;-92
2021/09/15 06:09:34;;;;;;;32.20;29.20;;;;;;;16.71;84.71;99074.62;111370;1196;61848;-89
2021/09/15 06:12:00;;;;;;;31.60;28.60;;;;;;;16.80;84.53;99067.39;111309;1203;66794;-89
2021/09/15 06:14:27;;;;;;;32.00;28.80;;;;;;;16.88;84.38;99063.96;111319;1195;62413;-89
2021/09/15 06:16:53;;;;;;;32.50;29.10;;;;;;;16.93;84.13;99064.05;111313;1203;64226;-89
2021/09/15 06:19:20;;;;;;;31.80;28.40;;;;;;;16.91;84.28;99066.40;111349;1195;61884;-89
